Time;durP1;ratioP1;P1;durP2;ratioP2;P2;SDS_P1;SDS_P2;PMS_P1;PMS_P2;Temp;Humidity;BMP_temperature;BMP_pressure;BME280_temperature;BME280_humidity;BME280_pressure;Samples;Min_cycle;Max_cycle;Signal;HPM_P1;HPM_P2
2020/12/02 00:01:37;;;;;;;55.75;23.42;;;;;;;1.53;100.00;102138.84;5051667;28;20025;-66
2020/12/02 00:04:25;;;;;;;52.60;22.27;;;;;;;1.52;100.00;102139.69;5058962;28;20516;-66
2020/12/02 00:07:11;;;;;;;48.17;21.40;;;;;;;1.67;100.00;102141.19;5071825;28;20036;-66
2020/12/02 00:09:57;;;;;;;51.63;21.27;;;;;;;1.33;100.00;102142.31;5071536;28;20036;-66
2020/12/02 00:12:42;;;;;;;58.17;22.55;;;;;;;1.34;100.00;102138.91;5071989;28;20041;-65
2020/12/02 00:15:28;;;;;;;53.35;21.52;;;;;;;1.00;100.00;102140.88;5071480;28;20052;-66
2020/12/02 00:18:14;;;;;;;65.97;24.13;;;;;;;0.80;100.00;102134.81;5071766;28;20086;-66
2020/12/02 00:20:59;;;;;;;56.47;23.55;;;;;;;1.38;100.00;102135.63;5071316;28;20040;-66
2020/12/02 00:23:46;;;;;;;57.83;23.70;;;;;;;1.46;100.00;102147.16;5072880;28;20472;-65
2020/12/02 00:26:31;;;;;;;56.42;23.17;;;;;;;1.53;100.00;102142.28;5072199;28;20024;-66
2020/12/02 00:29:17;;;;;;;57.58;23.60;;;;;;;1.63;100.00;102144.47;5071470;28;20460;-66
2020/12/02 00:32:03;;;;;;;55.35;23.25;;;;;;;1.56;100.00;102142.44;5071644;28;20091;-66
2020/12/02 00:34:48;;;;;;;60.50;24.08;;;;;;;1.54;100.00;102135.44;5071562;28;20105;-66
2020/12/02 00:37:33;;;;;;;51.03;22.38;;;;;;;1.01;100.00;102138.34;5074344;28;20395;-66
2020/12/02 00:40:19;;;;;;;61.10;23.20;;;;;;;0.96;100.00;102138.97;5075139;28;20449;-66
2020/12/02 00:43:04;;;;;;;61.13;23.27;;;;;;;1.31;100.00;102138.75;5075306;28;20052;-66
2020/12/02 00:45:53;;;;;;;62.17;23.52;;;;;;;1.18;100.00;102139.97;5075152;28;20051;-66
2020/12/02 00:48:42;;;;;;;69.18;22.75;;;;;;;1.06;100.00;102133.38;5075805;28;20038;-66
2020/12/02 00:51:28;;;;;;;57.53;23.83;;;;;;;1.48;100.00;102132.63;5062307;28;20353;-66
2020/12/02 00:54:13;;;;;;;54.33;22.48;;;;;;;1.28;100.00;102138.66;5075057;28;20388;-66
2020/12/02 00:57:00;;;;;;;60.22;24.40;;;;;;;0.88;100.00;102140.34;5074888;28;20463;-66
2020/12/02 00:59:51;;;;;;;68.95;27.45;;;;;;;0.77;100.00;102136.38;5074978;28;20123;-66
2020/12/02 01:02:45;;;;;;;64.57;25.48;;;;;;;1.52;100.00;102143.13;5075299;28;20032;-66
2020/12/02 01:05:31;;;;;;;53.53;22.95;;;;;;;1.87;100.00;102135.09;5057726;28;20035;-67
2020/12/02 01:08:39;;;;;;;67.35;25.77;;;;;;;1.37;100.00;102132.16;5055206;28;20033;-66
2020/12/02 01:11:28;;;;;;;60.88;26.13;;;;;;;1.47;100.00;102139.47;5054818;28;20128;-65
2020/12/02 01:14:16;;;;;;;49.28;21.60;;;;;;;1.08;100.00;102135.19;5059877;28;20044;-64
2020/12/02 01:17:02;;;;;;;57.63;22.58;;;;;;;0.94;100.00;102135.44;5061317;28;20033;-64
2020/12/02 01:19:48;;;;;;;55.03;22.83;;;;;;;0.80;100.00;102133.97;5055050;28;20393;-65
2020/12/02 01:22:38;;;;;;;55.22;23.92;;;;;;;1.63;100.00;102131.53;5060782;28;20037;-65
2020/12/02 01:25:26;;;;;;;60.03;24.30;;;;;;;1.52;100.00;102129.34;5055333;28;20041;-66
2020/12/02 01:28:17;;;;;;;53.30;23.08;;;;;;;2.08;100.00;102122.13;5054856;28;20044;-66
2020/12/02 01:31:05;;;;;;;58.65;24.65;;;;;;;1.62;100.00;102129.78;5040666;28;20064;-66
2020/12/02 01:33:52;;;;;;;55.80;24.40;;;;;;;1.58;100.00;102117.56;5054432;28;20063;-66
2020/12/02 01:37:07;;;;;;;55.65;24.40;;;;;;;1.02;100.00;102122.06;5054508;28;20402;-65
2020/12/02 01:40:11;;;;;;;61.80;25.10;;;;;;;1.62;100.00;102118.56;5052125;28;20075;-66
2020/12/02 01:43:03;;;;;;;63.55;25.88;;;;;;;1.91;100.00;102125.75;5053922;28;20065;-66
2020/12/02 01:45:57;;;;;;;58.30;24.33;;;;;;;1.93;100.00;102121.56;5054067;28;20052;-66
2020/12/02 01:49:15;;;;;;;57.92;26.05;;;;;;;1.87;100.00;102119.59;5053425;28;20064;-66
2020/12/02 01:52:47;;;;;;;60.85;25.83;;;;;;;1.84;100.00;102121.19;5054210;28;20044;-66
2020/12/02 01:55:39;;;;;;;59.30;26.08;;;;;;;1.61;100.00;102119.38;5027812;28;20037;-66
2020/12/02 01:58:38;;;;;;;61.30;26.33;;;;;;;1.87;100.00;102127.34;5053954;28;20056;-65
2020/12/02 02:01:33;;;;;;;68.53;27.65;;;;;;;1.54;100.00;102127.69;5053873;28;20037;-66
2020/12/02 02:04:26;;;;;;;60.63;25.55;;;;;;;1.81;100.00;102128.81;5046689;28;20040;-66
2020/12/02 02:07:16;;;;;;;65.22;26.67;;;;;;;2.09;100.00;102145.47;5073821;28;20032;-65
2020/12/02 02:10:19;;;;;;;66.97;28.17;;;;;;;1.92;100.00;102135.31;5073276;28;20059;-66
2020/12/02 02:13:23;;;;;;;60.67;26.52;;;;;;;1.96;100.00;102139.75;5073880;28;20101;-65
2020/12/02 02:16:19;;;;;;;64.20;26.20;;;;;;;1.67;100.00;102135.13;5073631;28;20380;-65
2020/12/02 02:19:04;;;;;;;60.67;26.35;;;;;;;1.92;100.00;102131.00;5073457;28;20052;-65
2020/12/02 02:21:54;;;;;;;62.72;26.25;;;;;;;1.88;100.00;102133.41;5059471;28;20036;-65
2020/12/02 02:24:40;;;;;;;57.60;24.50;;;;;;;1.34;100.00;102129.47;5072910;28;20032;-65
2020/12/02 02:27:27;;;;;;;61.22;25.50;;;;;;;1.71;100.00;102127.56;5059527;28;20028;-65
2020/12/02 02:30:14;;;;;;;57.75;25.70;;;;;;;1.95;100.00;102133.72;5073152;28;20044;-66
2020/12/02 02:33:00;;;;;;;66.57;26.83;;;;;;;1.49;100.00;102119.75;5073387;28;20105;-66
2020/12/02 02:35:47;;;;;;;55.92;25.15;;;;;;;1.69;100.00;102118.84;5072979;28;20041;-65
2020/12/02 02:38:32;;;;;;;54.45;24.60;;;;;;;1.67;100.00;102123.09;5059308;28;20123;-66
2020/12/02 02:41:19;;;;;;;55.55;24.80;;;;;;;1.67;100.00;102112.75;5072728;28;20038;-67
2020/12/02 02:44:04;;;;;;;53.17;25.48;;;;;;;1.55;100.00;102114.84;5059036;28;20110;-68
2020/12/02 02:46:51;;;;;;;52.35;24.02;;;;;;;1.78;100.00;102116.66;5072987;28;20043;-66
2020/12/02 02:49:36;;;;;;;59.65;25.92;;;;;;;2.09;100.00;102124.78;5072746;28;20103;-66
2020/12/02 02:52:21;;;;;;;63.33;26.85;;;;;;;1.58;100.00;102127.91;5073128;28;20044;-66
2020/12/02 02:55:12;;;;;;;72.55;26.52;;;;;;;1.28;100.00;102118.88;5072588;28;20035;-66
2020/12/02 02:57:58;;;;;;;62.85;25.50;;;;;;;1.64;100.00;102124.69;5072978;28;20074;-66
2020/12/02 03:00:45;;;;;;;57.83;24.77;;;;;;;1.58;100.00;102132.16;5072188;28;20037;-65
2020/12/02 03:03:31;;;;;;;61.75;24.65;;;;;;;1.36;100.00;102127.81;5072231;28;20040;-65
2020/12/02 03:06:16;;;;;;;58.83;24.30;;;;;;;1.77;100.00;102124.34;5052807;28;20032;-67
2020/12/02 03:09:02;;;;;;;61.60;25.20;;;;;;;1.47;100.00;102117.91;5052642;28;20453;-66
2020/12/02 03:11:51;;;;;;;67.50;25.45;;;;;;;1.34;100.00;102119.13;5052436;28;20036;-65
2020/12/02 03:14:41;;;;;;;60.25;24.17;;;;;;;1.50;100.00;102129.28;5052502;28;20464;-66
2020/12/02 03:17:27;;;;;;;57.17;23.50;;;;;;;1.46;100.00;102127.38;5038738;28;20037;-66
2020/12/02 03:20:30;;;;;;;62.90;25.40;;;;;;;1.57;100.00;102127.81;5052343;28;20041;-66
2020/12/02 03:23:17;;;;;;;58.33;24.88;;;;;;;1.97;100.00;102128.59;5038497;28;20052;-65
2020/12/02 03:26:03;;;;;;;60.47;23.73;;;;;;;1.93;100.00;102130.16;5051923;28;20131;-66
2020/12/02 03:28:48;;;;;;;62.65;24.77;;;;;;;1.68;100.00;102124.84;5052057;28;20032;-66
2020/12/02 03:31:35;;;;;;;61.17;23.55;;;;;;;1.66;100.00;102130.78;5052153;28;20461;-66
2020/12/02 03:34:22;;;;;;;60.53;24.42;;;;;;;1.88;100.00;102134.28;5052271;28;20029;-67
2020/12/02 03:37:08;;;;;;;61.88;24.55;;;;;;;1.81;100.00;102140.00;5038322;28;20048;-67
2020/12/02 03:39:53;;;;;;;75.07;26.67;;;;;;;1.51;100.00;102146.53;5051905;28;20368;-66
2020/12/02 03:42:38;;;;;;;69.68;25.95;;;;;;;1.37;100.00;102150.22;5051793;28;20473;-65
2020/12/02 03:45:24;;;;;;;69.03;25.08;;;;;;;1.44;100.00;102152.25;5051930;28;20047;-66
2020/12/02 03:48:12;;;;;;;61.25;24.20;;;;;;;1.69;100.00;102161.91;5051665;28;20091;-66
2020/12/02 03:50:58;;;;;;;62.35;24.30;;;;;;;1.20;100.00;102165.84;5052003;28;20094;-67
2020/12/02 03:53:43;;;;;;;68.68;24.95;;;;;;;1.38;100.00;102164.03;5038380;28;20178;-66
2020/12/02 03:56:29;;;;;;;59.00;23.80;;;;;;;1.77;100.00;102163.97;5051777;28;20045;-66
2020/12/02 03:59:15;;;;;;;61.33;24.48;;;;;;;1.52;100.00;102168.94;5051731;28;20098;-66
2020/12/02 04:02:00;;;;;;;74.03;25.55;;;;;;;1.38;100.00;102169.19;5052337;28;20033;-65
2020/12/02 04:04:45;;;;;;;64.50;24.60;;;;;;;1.90;100.00;102168.84;5062662;28;20032;-66
2020/12/02 04:07:31;;;;;;;60.08;24.50;;;;;;;2.03;100.00;102157.25;5076557;28;20028;-65
2020/12/02 04:10:17;;;;;;;79.65;25.35;;;;;;;1.86;100.00;102169.53;5073766;28;20063;-65
2020/12/02 04:13:03;;;;;;;62.00;23.77;;;;;;;1.44;100.00;102166.88;5062727;28;20356;-65
2020/12/02 04:15:49;;;;;;;57.88;23.58;;;;;;;1.60;100.00;102171.88;5080248;28;20028;-65
2020/12/02 04:18:34;;;;;;;58.28;24.17;;;;;;;1.86;100.00;102171.22;5076799;28;20047;-65
2020/12/02 04:21:24;;;;;;;68.80;25.60;;;;;;;1.82;100.00;102170.22;5075894;28;20033;-66
2020/12/02 04:24:09;;;;;;;65.25;25.58;;;;;;;1.46;100.00;102176.44;5075373;28;20029;-66
2020/12/02 04:26:55;;;;;;;70.18;24.90;;;;;;;1.74;100.00;102174.19;5075631;28;20044;-65
2020/12/02 04:29:40;;;;;;;69.10;25.10;;;;;;;1.74;100.00;102173.31;5075502;28;20477;-66
2020/12/02 04:32:25;;;;;;;76.40;26.05;;;;;;;1.53;100.00;102172.44;5075702;28;20414;-66
2020/12/02 04:35:11;;;;;;;62.17;23.98;;;;;;;1.64;100.00;102184.09;5061458;28;20068;-66
2020/12/02 04:37:57;;;;;;;59.75;24.20;;;;;;;1.68;100.00;102180.81;5075481;28;20032;-65
2020/12/02 04:40:42;;;;;;;67.00;25.60;;;;;;;1.46;100.00;102180.72;5075119;28;20043;-66
2020/12/02 04:43:49;;;;;;;65.20;25.60;;;;;;;1.37;100.00;102182.91;5075220;28;20139;-66
2020/12/02 04:46:34;;;;;;;72.32;26.95;;;;;;;1.58;100.00;102184.72;5075369;28;20119;-66
2020/12/02 04:49:30;;;;;;;68.18;25.25;;;;;;;1.59;100.00;102189.06;5061257;28;20032;-65
2020/12/02 04:52:15;;;;;;;60.00;25.48;;;;;;;1.37;100.00;102186.38;5075005;28;20032;-66
2020/12/02 04:55:01;;;;;;;67.43;25.50;;;;;;;1.86;100.00;102189.31;5074939;28;20032;-66
2020/12/02 04:57:46;;;;;;;55.40;22.73;;;;;;;1.27;100.00;102185.91;5075222;28;20024;-66
2020/12/02 05:00:32;;;;;;;54.42;22.98;;;;;;;1.54;100.00;102190.56;5074897;28;20028;-66
2020/12/02 05:03:18;;;;;;;60.33;24.38;;;;;;;1.43;100.00;102185.75;5074934;28;20021;-66
2020/12/02 05:06:03;;;;;;;51.65;22.75;;;;;;;1.92;100.00;102189.56;5054981;28;20047;-65
2020/12/02 05:08:49;;;;;;;58.58;23.80;;;;;;;1.38;100.00;102180.41;5040880;28;20041;-65
2020/12/02 05:11:35;;;;;;;62.78;23.70;;;;;;;1.95;100.00;102187.97;5040911;28;20108;-65
2020/12/02 05:14:21;;;;;;;62.03;24.25;;;;;;;1.72;100.00;102185.28;5054701;28;20033;-66
2020/12/02 05:17:28;;;;;;;56.70;23.58;;;;;;;1.64;100.00;102178.94;5055029;28;20025;-66
2020/12/02 05:20:20;;;;;;;54.55;22.42;;;;;;;1.64;100.00;102190.13;5040714;28;20040;-66
2020/12/02 05:23:24;;;;;;;58.83;22.83;;;;;;;1.58;100.00;102191.56;5053214;28;20407;-66
2020/12/02 05:26:17;;;;;;;60.42;23.17;;;;;;;1.72;100.00;102185.28;5040576;28;20142;-65
2020/12/02 05:29:14;;;;;;;56.38;21.98;;;;;;;2.00;100.00;102191.63;5054197;28;20044;-66
2020/12/02 05:32:05;;;;;;;59.92;23.85;;;;;;;2.33;100.00;102198.13;5054326;28;20079;-65
2020/12/02 05:34:51;;;;;;;62.40;24.45;;;;;;;2.55;100.00;102195.56;5040975;28;20106;-66
2020/12/02 05:37:43;;;;;;;61.92;23.48;;;;;;;1.61;100.00;102197.72;5053981;28;20037;-65
2020/12/02 05:40:29;;;;;;;58.10;24.08;;;;;;;1.67;100.00;102195.41;5053923;28;20537;-66
2020/12/02 05:43:22;;;;;;;57.22;23.10;;;;;;;2.00;100.00;102199.38;5053813;28;20053;-66
2020/12/02 05:46:17;;;;;;;59.22;23.75;;;;;;;2.19;100.00;102194.13;5054180;28;20193;-66
2020/12/02 05:49:15;;;;;;;55.30;23.08;;;;;;;1.68;100.00;102192.00;5053749;28;20105;-66
2020/12/02 05:52:02;;;;;;;58.15;24.20;;;;;;;1.88;100.00;102192.84;5053753;28;20465;-66
2020/12/02 05:54:48;;;;;;;58.33;24.35;;;;;;;2.03;100.00;102199.50;5053689;28;20120;-66
2020/12/02 05:57:38;;;;;;;57.13;23.88;;;;;;;2.06;100.00;102197.06;5053827;28;20115;-65
2020/12/02 06:00:28;;;;;;;61.97;24.63;;;;;;;2.10;100.00;102195.47;5053607;28;20044;-66
2020/12/02 06:03:17;;;;;;;64.10;26.40;;;;;;;1.84;100.00;102199.56;5053748;28;20128;-65
2020/12/02 06:06:13;;;;;;;66.20;25.48;;;;;;;1.62;100.00;102199.53;5067962;28;20037;-66
2020/12/02 06:09:00;;;;;;;74.70;29.08;;;;;;;1.32;100.00;102194.75;5053615;28;20036;-67
2020/12/02 06:11:46;;;;;;;73.28;28.60;;;;;;;1.62;100.00;102202.09;5067454;28;20538;-67
2020/12/02 06:14:33;;;;;;;73.43;28.30;;;;;;;2.01;100.00;102201.13;5053452;28;20124;-66
2020/12/02 06:17:28;;;;;;;78.53;29.00;;;;;;;1.44;100.00;102203.03;5053777;28;20032;-66
2020/12/02 06:20:14;;;;;;;74.55;27.90;;;;;;;1.21;100.00;102202.03;5053314;28;20033;-67
2020/12/02 06:23:04;;;;;;;68.60;27.63;;;;;;;2.05;100.00;102208.19;5053352;28;20114;-66
2020/12/02 06:25:53;;;;;;;64.57;27.45;;;;;;;2.65;100.00;102202.81;5052916;28;20060;-67
2020/12/02 06:28:39;;;;;;;73.53;27.85;;;;;;;2.86;100.00;102208.81;5053148;28;20072;-67
2020/12/02 06:31:27;;;;;;;64.47;26.75;;;;;;;2.09;100.00;102214.38;5053397;28;20040;-66
2020/12/02 06:34:22;;;;;;;76.50;29.55;;;;;;;1.93;100.00;102215.44;5066651;28;20548;-66
2020/12/02 06:37:15;;;;;;;70.72;28.52;;;;;;;2.62;100.00;102218.22;5053438;28;20151;-67
2020/12/02 06:40:01;;;;;;;67.25;27.05;;;;;;;2.17;100.00;102216.44;5052970;28;20068;-67
2020/12/02 06:42:47;;;;;;;78.22;30.50;;;;;;;1.90;100.00;102212.75;5053044;28;20063;-66
2020/12/02 06:45:37;;;;;;;64.20;27.58;;;;;;;2.56;100.00;102207.66;5053073;28;20045;-66
2020/12/02 06:48:25;;;;;;;79.88;32.67;;;;;;;2.20;100.00;102203.66;5067157;28;20422;-67
2020/12/02 06:51:16;;;;;;;78.07;30.27;;;;;;;2.58;100.00;102203.41;5053082;28;20028;-66
2020/12/02 06:54:01;;;;;;;68.95;29.48;;;;;;;2.79;100.00;102206.84;5066416;28;20389;-68
2020/12/02 06:56:46;;;;;;;64.18;27.75;;;;;;;2.58;100.00;102205.13;5039751;28;20429;-66
2020/12/02 06:59:48;;;;;;;64.97;27.13;;;;;;;2.93;100.00;102212.53;5070222;28;20155;-66
2020/12/02 07:02:53;;;;;;;57.22;25.10;;;;;;;2.82;100.00;102206.06;5072334;28;20116;-67
2020/12/02 07:05:43;;;;;;;55.50;25.20;;;;;;;3.01;100.00;102201.59;5059036;28;20044;-67
2020/12/02 07:08:33;;;;;;;54.85;25.35;;;;;;;2.69;100.00;102201.25;5057034;28;20036;-66
2020/12/02 07:11:21;;;;;;;60.50;25.92;;;;;;;2.95;100.00;102206.56;5055848;28;20086;-66
2020/12/02 07:14:19;;;;;;;55.20;25.20;;;;;;;2.91;100.00;102209.88;5056601;28;20025;-66
2020/12/02 07:17:07;;;;;;;53.42;24.77;;;;;;;2.70;100.00;102210.78;5054540;28;20520;-66
2020/12/02 07:19:53;;;;;;;48.97;23.10;;;;;;;2.78;100.00;102217.13;5066525;28;20040;-67
2020/12/02 07:22:45;;;;;;;57.35;25.20;;;;;;;2.69;100.00;102216.78;5052526;28;20107;-67
2020/12/02 07:25:31;;;;;;;54.03;24.48;;;;;;;3.02;100.00;102223.22;5052091;28;20037;-66
2020/12/02 07:28:19;;;;;;;52.58;23.52;;;;;;;3.21;100.00;102220.44;5052610;28;20036;-66
2020/12/02 07:31:22;;;;;;;58.20;28.23;;;;;;;3.27;100.00;102221.56;5052327;28;20040;-67
2020/12/02 07:34:17;;;;;;;54.83;23.95;;;;;;;2.98;100.00;102231.69;5052126;28;20052;-66
2020/12/02 07:37:08;;;;;;;62.20;24.80;;;;;;;3.22;100.00;102230.84;5052315;28;20064;-66
2020/12/02 07:39:58;;;;;;;54.78;24.05;;;;;;;2.99;100.00;102236.03;5052063;28;20041;-66
2020/12/02 07:42:43;;;;;;;55.88;23.73;;;;;;;2.62;100.00;102238.94;5052117;28;20088;-66
2020/12/02 07:45:32;;;;;;;55.58;23.35;;;;;;;2.45;100.00;102234.81;5037954;28;20044;-66
2020/12/02 07:48:24;;;;;;;62.15;25.83;;;;;;;2.72;100.00;102247.94;5052164;28;20072;-66
2020/12/02 07:51:12;;;;;;;55.85;24.10;;;;;;;2.78;100.00;102238.69;5052249;28;20149;-66
2020/12/02 07:54:14;;;;;;;55.63;23.90;;;;;;;3.01;100.00;102237.84;5052033;28;20112;-66
2020/12/02 07:57:02;;;;;;;60.22;24.35;;;;;;;2.51;100.00;102239.34;5052176;28;20040;-67
2020/12/02 08:00:05;;;;;;;52.95;23.83;;;;;;;2.73;100.00;102240.22;5051864;28;20130;-66
2020/12/02 08:02:52;;;;;;;60.60;26.10;;;;;;;2.53;100.00;102238.56;5052325;28;20480;-66
2020/12/02 08:05:56;;;;;;;59.20;25.83;;;;;;;2.99;100.00;102238.63;5051600;28;20492;-66
2020/12/02 08:08:41;;;;;;;68.18;27.05;;;;;;;2.25;100.00;102246.06;5051859;28;20036;-65
2020/12/02 08:11:26;;;;;;;59.22;25.75;;;;;;;2.75;100.00;102248.94;5052151;28;20025;-67
2020/12/02 08:14:23;;;;;;;51.88;23.60;;;;;;;2.79;100.00;102248.25;5051861;28;20033;-67
2020/12/02 08:17:24;;;;;;;55.85;25.13;;;;;;;3.01;100.00;102244.75;5052290;28;20048;-64
2020/12/02 08:20:25;;;;;;;57.40;25.20;;;;;;;2.38;100.00;102253.53;5051926;28;20028;-65
2020/12/02 08:23:32;;;;;;;57.58;25.98;;;;;;;2.98;100.00;102257.56;5037968;28;20055;-65
2020/12/02 08:26:23;;;;;;;60.78;26.00;;;;;;;3.00;100.00;102255.91;5052306;28;20433;-64
2020/12/02 08:29:11;;;;;;;65.20;26.25;;;;;;;3.04;100.00;102250.91;5051655;28;20049;-64
2020/12/02 08:32:28;;;;;;;63.17;26.55;;;;;;;2.81;100.00;102250.88;5037589;28;20453;-64
2020/12/02 08:35:27;;;;;;;59.95;26.95;;;;;;;2.83;100.00;102254.41;5051662;28;20029;-65
2020/12/02 08:38:21;;;;;;;59.28;25.95;;;;;;;2.67;100.00;102237.41;5051765;28;20037;-64
2020/12/02 08:41:17;;;;;;;69.63;29.45;;;;;;;2.90;100.00;102230.53;5051425;28;20453;-64
2020/12/02 08:44:09;;;;;;;64.90;28.42;;;;;;;2.80;100.00;102239.66;5051423;28;20040;-64
2020/12/02 08:46:59;;;;;;;63.38;27.27;;;;;;;2.95;100.00;102232.47;5051713;28;20041;-64
2020/12/02 08:49:45;;;;;;;60.85;27.77;;;;;;;3.12;100.00;102226.19;5051426;28;20099;-64
2020/12/02 08:52:30;;;;;;;69.50;28.58;;;;;;;3.23;100.00;102224.88;5037778;28;20036;-64
2020/12/02 08:55:16;;;;;;;62.30;26.85;;;;;;;3.09;100.00;102231.25;5051167;28;20025;-64
2020/12/02 08:58:02;;;;;;;65.50;27.02;;;;;;;2.97;100.00;102227.34;5053186;28;20457;-64
2020/12/02 09:00:47;;;;;;;55.42;25.02;;;;;;;2.96;100.00;102229.03;5055061;28;20421;-64
2020/12/02 09:03:33;;;;;;;60.03;25.38;;;;;;;3.13;100.00;102227.94;5055867;28;20399;-64
2020/12/02 09:06:20;;;;;;;57.70;26.08;;;;;;;3.23;100.00;102230.06;5074879;28;20281;-64
2020/12/02 09:09:06;;;;;;;55.22;25.55;;;;;;;3.26;100.00;102221.50;5061015;28;20047;-64
2020/12/02 09:11:51;;;;;;;53.13;23.88;;;;;;;3.01;100.00;102217.13;5074917;28;20056;-64
2020/12/02 09:14:36;;;;;;;58.88;29.17;;;;;;;3.54;100.00;102219.94;5074669;28;20043;-65
2020/12/02 09:17:23;;;;;;;55.83;23.90;;;;;;;3.28;100.00;102209.47;5074984;28;20028;-65
2020/12/02 09:20:09;;;;;;;57.10;25.50;;;;;;;3.22;100.00;102209.28;5074498;28;20115;-65
2020/12/02 09:22:54;;;;;;;62.15;26.88;;;;;;;2.95;100.00;102211.75;5060879;28;20037;-64
2020/12/02 09:25:40;;;;;;;60.00;26.13;;;;;;;3.38;100.00;102204.69;5074336;28;20400;-65
2020/12/02 09:28:25;;;;;;;60.03;25.80;;;;;;;3.13;100.00;102199.47;5074682;28;20046;-65
2020/12/02 09:31:11;;;;;;;60.33;25.95;;;;;;;2.34;100.00;102199.03;5060415;28;20093;-65
2020/12/02 09:33:57;;;;;;;64.35;27.30;;;;;;;2.83;100.00;102202.66;5060849;28;20094;-65
2020/12/02 09:36:45;;;;;;;66.30;27.35;;;;;;;2.92;100.00;102192.63;5060665;28;20036;-65
2020/12/02 09:39:31;;;;;;;52.13;24.05;;;;;;;3.20;100.00;102188.50;5074087;28;20395;-64
2020/12/02 09:42:23;;;;;;;61.85;25.08;;;;;;;3.28;100.00;102192.25;5074602;28;20063;-65
2020/12/02 09:45:24;;;;;;;61.15;26.20;;;;;;;3.19;100.00;102189.34;5074038;28;20038;-64
2020/12/02 09:48:13;;;;;;;62.58;26.02;;;;;;;3.32;100.00;102188.03;5074156;28;20469;-64
2020/12/02 09:50:59;;;;;;;59.38;26.15;;;;;;;3.02;100.00;102180.06;5060043;28;20058;-66
2020/12/02 09:53:48;;;;;;;56.25;24.48;;;;;;;3.27;100.00;102174.06;5073955;28;20086;-66
2020/12/02 09:56:41;;;;;;;58.03;23.67;;;;;;;3.24;100.00;102171.34;5074250;28;20082;-64
2020/12/02 09:59:26;;;;;;;57.28;25.85;;;;;;;3.42;100.00;102175.47;5060230;28;20032;-65
2020/12/02 10:02:37;;;;;;;61.22;26.30;;;;;;;3.34;100.00;102161.38;5073873;28;20028;-64
2020/12/02 10:05:54;;;;;;;66.03;26.80;;;;;;;3.18;100.00;102166.84;5057596;28;20476;-64
2020/12/02 10:09:14;;;;;;;58.20;25.15;;;;;;;3.14;100.00;102161.50;5047984;28;20105;-65
2020/12/02 10:12:13;;;;;;;54.45;24.45;;;;;;;3.29;100.00;102160.34;5054120;28;20037;-67
2020/12/02 10:15:19;;;;;;;54.63;23.77;;;;;;;3.79;100.00;102162.03;5054114;28;20040;-65
2020/12/02 10:18:17;;;;;;;64.95;25.83;;;;;;;3.59;100.00;102157.91;5054016;28;20111;-64
2020/12/02 10:21:34;;;;;;;56.40;24.67;;;;;;;3.94;100.00;102154.75;5054113;28;20365;-64
2020/12/02 10:24:57;;;;;;;60.97;25.95;;;;;;;3.68;100.00;102148.72;5053459;28;20044;-65
2020/12/02 10:28:13;;;;;;;67.38;28.10;;;;;;;4.11;100.00;102144.06;5053779;28;20044;-65
2020/12/02 10:31:08;;;;;;;62.70;25.55;;;;;;;3.98;100.00;102149.69;5053619;28;20353;-65
2020/12/02 10:33:56;;;;;;;54.83;23.70;;;;;;;4.10;100.00;102159.59;5039708;28;20021;-63
2020/12/02 10:36:49;;;;;;;55.47;24.52;;;;;;;3.79;100.00;102160.34;5053373;28;20480;-64
2020/12/02 10:39:35;;;;;;;60.72;26.08;;;;;;;4.29;100.00;102152.44;5053087;28;20043;-65
2020/12/02 10:42:36;;;;;;;57.92;25.00;;;;;;;4.13;100.00;102155.38;5053476;28;20056;-64
2020/12/02 10:45:23;;;;;;;56.75;25.20;;;;;;;4.24;100.00;102156.59;5039559;28;20033;-65
2020/12/02 10:48:25;;;;;;;60.90;27.63;;;;;;;3.60;100.00;102152.78;5053660;28;20350;-64
2020/12/02 10:51:13;;;;;;;62.67;26.70;;;;;;;3.99;100.00;102148.88;5053142;28;20036;-64
2020/12/02 10:54:00;;;;;;;66.10;29.02;;;;;;;4.05;100.00;102145.59;5039480;28;20445;-65
2020/12/02 10:56:49;;;;;;;61.17;25.90;;;;;;;3.91;100.00;102146.88;5053582;28;20063;-65
2020/12/02 10:59:35;;;;;;;60.58;26.40;;;;;;;4.02;100.00;102141.19;5053197;28;20033;-65
2020/12/02 11:02:27;;;;;;;69.40;29.15;;;;;;;3.35;100.00;102137.25;5052937;28;20029;-64
2020/12/02 11:05:13;;;;;;;63.38;27.25;;;;;;;3.84;100.00;102134.53;5067014;28;20036;-64
2020/12/02 11:08:24;;;;;;;76.50;28.35;;;;;;;3.67;100.00;102141.78;5073015;28;20353;-64
2020/12/02 11:11:38;;;;;;;68.00;27.73;;;;;;;3.79;100.00;102133.53;5061880;28;20130;-64
2020/12/02 11:14:31;;;;;;;58.80;26.02;;;;;;;4.20;100.00;102125.31;5072814;28;20028;-64
2020/12/02 11:17:26;;;;;;;66.13;27.50;;;;;;;4.23;100.00;102126.28;5058748;28;20028;-64
2020/12/02 11:20:37;;;;;;;63.83;27.15;;;;;;;4.20;100.00;102128.81;5072404;28;20032;-64
2020/12/02 11:23:54;;;;;;;63.13;26.88;;;;;;;4.00;100.00;102132.50;5058700;28;20024;-65
2020/12/02 11:26:43;;;;;;;60.70;26.17;;;;;;;3.95;100.00;102138.38;5058953;28;20093;-64
2020/12/02 11:29:28;;;;;;;74.82;29.63;;;;;;;4.16;100.00;102119.19;5058644;28;20059;-64
2020/12/02 11:32:50;;;;;;;64.78;26.70;;;;;;;4.01;100.00;102121.28;5072073;28;20166;-65
2020/12/02 11:36:12;;;;;;;66.03;28.25;;;;;;;4.56;100.00;102119.53;5058593;28;20131;-65
2020/12/02 11:39:19;;;;;;;61.53;27.85;;;;;;;4.31;100.00;102106.63;5072376;28;20112;-64
2020/12/02 11:42:22;;;;;;;62.80;27.90;;;;;;;4.02;100.00;102109.22;5058289;28;20059;-65
2020/12/02 11:45:19;;;;;;;62.88;26.73;;;;;;;4.17;100.00;102105.38;5058021;28;20091;-64
2020/12/02 11:48:31;;;;;;;64.82;27.38;;;;;;;4.16;100.00;102108.81;5072579;28;20056;-64
2020/12/02 11:51:32;;;;;;;57.10;25.88;;;;;;;4.13;100.00;102100.91;5072430;28;20035;-64
2020/12/02 11:54:18;;;;;;;59.22;26.02;;;;;;;3.87;100.00;102107.00;5058177;28;20028;-64
2020/12/02 11:57:05;;;;;;;58.47;25.38;;;;;;;4.23;100.00;102097.75;5072302;28;20098;-65
2020/12/02 11:59:52;;;;;;;65.13;27.88;;;;;;;4.06;100.00;102098.97;5072264;28;20044;-64
2020/12/02 12:02:44;;;;;;;59.03;27.42;;;;;;;4.20;100.00;102095.09;5072190;28;20032;-65
2020/12/02 12:05:37;;;;;;;65.53;28.38;;;;;;;3.94;100.00;102102.91;5054828;28;20040;-64
2020/12/02 12:08:44;;;;;;;62.15;28.13;;;;;;;4.21;100.00;102107.22;5038072;28;20116;-64
2020/12/02 12:11:55;;;;;;;55.40;25.25;;;;;;;4.22;100.00;102101.19;5038214;28;20121;-64
2020/12/02 12:15:00;;;;;;;61.88;27.92;;;;;;;4.05;100.00;102105.00;5051872;28;20051;-64
2020/12/02 12:17:52;;;;;;;69.05;29.15;;;;;;;3.78;100.00;102106.72;5038551;28;20024;-64
2020/12/02 12:20:51;;;;;;;65.40;26.88;;;;;;;3.84;100.00;102104.34;5051812;28;20052;-67
2020/12/02 12:24:03;;;;;;;59.22;26.20;;;;;;;4.07;100.00;102094.66;5051694;28;20143;-66
2020/12/02 12:26:54;;;;;;;62.47;28.08;;;;;;;4.08;100.00;102086.03;5052169;28;20045;-65
2020/12/02 12:29:39;;;;;;;60.63;26.70;;;;;;;4.21;100.00;102080.38;5052109;28;20037;-64
2020/12/02 12:32:35;;;;;;;60.60;27.33;;;;;;;4.27;100.00;102078.84;5052338;28;20367;-65
2020/12/02 12:35:29;;;;;;;72.18;29.40;;;;;;;4.27;100.00;102078.84;5056011;28;20437;-64
2020/12/02 12:38:27;;;;;;;67.80;28.63;;;;;;;3.94;100.00;102090.81;5056132;28;20484;-64
2020/12/02 12:41:21;;;;;;;57.90;26.02;;;;;;;4.26;100.00;102074.50;5055645;28;20086;-64
2020/12/02 12:44:19;;;;;;;60.25;26.73;;;;;;;4.14;100.00;102074.16;5055475;28;20486;-65
2020/12/02 12:47:11;;;;;;;61.00;27.55;;;;;;;4.49;100.00;102076.06;5056012;28;20448;-64
2020/12/02 12:49:57;;;;;;;61.78;27.02;;;;;;;4.33;100.00;102073.84;5055308;28;20044;-64
2020/12/02 12:52:45;;;;;;;61.55;27.50;;;;;;;3.91;100.00;102082.06;5055179;28;20048;-64
2020/12/02 12:55:31;;;;;;;67.90;28.58;;;;;;;3.94;100.00;102076.97;5055158;28;20505;-64
2020/12/02 12:58:18;;;;;;;70.20;29.73;;;;;;;4.21;100.00;102072.59;5055461;28;20514;-64
2020/12/02 13:01:05;;;;;;;66.60;29.83;;;;;;;3.76;100.00;102071.22;5055044;28;20094;-65